LLIB/RPN METAR and TAF weather

Enter ICAO airport designator
Station Type Date Time Source
LLIB METAR 2019/02/17 15:50 UTC NOAA

LLIB 171550Z 00000KT 9999 FEW035 09/07 Q1020


Station Type Date Time Source
LLIB Decoded METAR 2019/02/17 15:50 UTC NOAA

Galilee / Pina, Israel (LLIB) 32-58-48N 035-34-12E
Feb 17, 2019 - 10:50 AM EST / 2019.02.17 1550 UTC
Wind: Calm:0
Visibility: greater than 7 mile(s):0
Sky conditions: mostly clear
Temperature: 48 F (9 C)
Dew Point: 44 F (7 C)
Relative Humidity: 87%
Pressure (altimeter): 30.12 in. Hg (1020 hPa)
ob: LLIB 171550Z 00000KT 9999 FEW035 09/07 Q1020
cycle: 16

Station Type Date Time Source
LLIB TAF 2019/02/17 12:15 UTC NOAA

TAF LLIB 171111Z 1712/1812 30006KT 9999 SCT025
TEMPO 1712/1715 VRB15KT 6000 RA SCT010 FEW020TCU BKN025
BECMG 1716/1718 VRB03KT PROB40 1800/1807 2000 BCFG BKN005
FM180700 17005KT 6000 FEW015 SCT020 PROB30 1807/1812 5000 RA FEW015TCU BKN020 TX14/1712Z TN04/1804Z


Example: see airport list